createdAt,value
2016-11-14T00:00:52.756Z,59.11
2016-11-14T00:01:52.541Z,57.41
2016-11-14T00:02:52.500Z,56.84
2016-11-14T00:03:52.494Z,57.5
2016-11-14T00:04:52.476Z,56.84
2016-11-14T00:05:52.455Z,57.03
2016-11-14T00:06:52.426Z,57.41
2016-11-14T00:07:52.403Z,58.26
2016-11-14T00:08:52.389Z,58.07
2016-11-14T00:09:52.369Z,59.58
2016-11-14T00:10:52.348Z,59.48
2016-11-14T00:11:52.325Z,59.48
2016-11-14T00:12:52.304Z,58.92
2016-11-14T00:13:52.296Z,59.11
2016-11-14T00:14:52.272Z,59.95
2016-11-14T00:15:52.247Z,59.48
2016-11-14T00:16:52.232Z,59.86
2016-11-14T00:17:52.225Z,59.58
2016-11-14T00:18:52.193Z,59.86
2016-11-14T00:19:52.170Z,59.95
2016-11-14T00:20:52.147Z,58.35
2016-11-14T00:21:52.127Z,58.07
2016-11-14T00:22:52.110Z,57.22
2016-11-14T00:23:52.107Z,57.97
2016-11-14T00:24:52.075Z,57.5
2016-11-14T00:25:52.072Z,56.46
2016-11-14T00:26:52.036Z,56.56
2016-11-14T00:27:52.071Z,58.07
2016-11-14T00:28:52.034Z,58.92
2016-11-14T00:29:51.976Z,59.3
2016-11-14T00:30:51.953Z,59.67
2016-11-14T00:31:51.941Z,58.45
2016-11-14T00:32:51.931Z,57.5
2016-11-14T00:33:51.900Z,57.88
2016-11-14T00:34:51.876Z,56.75
2016-11-14T00:35:51.871Z,55.05
2016-11-14T00:36:51.846Z,54.3
2016-11-14T00:37:51.823Z,52.98
2016-11-14T00:38:51.790Z,52.88
2016-11-14T00:39:52.137Z,52.69
2016-11-14T00:40:51.771Z,51.66
2016-11-14T00:41:51.733Z,50.43
2016-11-14T00:42:51.744Z,50.05
2016-11-14T00:43:51.696Z,50.62
2016-11-14T00:44:51.676Z,52.69
2016-11-14T00:45:51.655Z,53.73
2016-11-14T00:46:51.636Z,53.92
2016-11-14T00:47:51.677Z,54.86
2016-11-14T00:48:51.603Z,54.86
2016-11-14T00:49:51.602Z,55.15
2016-11-14T00:50:51.565Z,54.39
2016-11-14T00:51:51.544Z,52.79
2016-11-14T00:52:51.522Z,50.9
2016-11-14T00:53:51.497Z,51.94
2016-11-14T00:54:51.480Z,52.13
2016-11-14T00:55:51.469Z,52.51
2016-11-14T00:56:51.456Z,51.75
2016-11-14T00:57:51.418Z,49.58
2016-11-14T00:58:51.396Z,49.96
2016-11-14T00:59:51.390Z,50.05
2016-11-14T01:00:51.362Z,50.15
2016-11-14T01:01:51.341Z,50.34
2016-11-14T01:02:51.319Z,51.66
2016-11-14T01:03:51.305Z,52.41
2016-11-14T01:04:51.281Z,53.73
2016-11-14T01:05:51.260Z,54.58
2016-11-14T01:06:51.243Z,55.24
2016-11-14T01:07:51.225Z,55.71
2016-11-14T01:08:51.202Z,56.93
2016-11-14T01:09:51.238Z,56.37
2016-11-14T01:10:51.168Z,53.73
2016-11-14T01:11:51.147Z,52.22
2016-11-14T01:12:51.121Z,52.03
2016-11-14T01:13:51.107Z,50.99
2016-11-14T01:14:51.085Z,49.96
2016-11-14T01:15:51.059Z,49.3
2016-11-14T01:16:51.046Z,48.36
2016-11-14T01:17:51.022Z,48.36
2016-11-14T01:18:51.002Z,48.55
2016-11-14T01:19:50.985Z,49.96
2016-11-14T01:20:50.965Z,49.87
2016-11-14T01:21:50.944Z,49.87
2016-11-14T01:22:50.926Z,48.36
2016-11-14T01:23:50.901Z,47.32
2016-11-14T01:24:50.884Z,47.32
2016-11-14T01:25:50.865Z,46.94
2016-11-14T01:26:50.846Z,45.72
2016-11-14T01:27:50.831Z,46.09
2016-11-14T01:28:50.804Z,47.13
2016-11-14T01:29:50.782Z,48.17
2016-11-14T01:30:50.772Z,49.49
2016-11-14T01:31:50.750Z,50.34
2016-11-14T01:32:50.728Z,50.71
2016-11-14T01:33:50.705Z,50.34
2016-11-14T01:34:50.686Z,49.4
2016-11-14T01:35:50.674Z,49.4
2016-11-14T01:36:50.644Z,48.64
2016-11-14T01:37:50.626Z,48.93
2016-11-14T01:38:50.609Z,49.58
2016-11-14T01:39:50.584Z,49.3
2016-11-14T01:40:50.563Z,47.89
2016-11-14T01:41:50.548Z,46.56
2016-11-14T01:42:50.525Z,45.34
2016-11-14T01:43:50.509Z,44.87
2016-11-14T01:44:50.525Z,45.43
2016-11-14T01:45:50.470Z,45.06
2016-11-14T01:46:50.449Z,44.68
2016-11-14T01:47:50.427Z,44.68
2016-11-14T01:48:50.405Z,45.43
2016-11-14T01:49:50.390Z,46.66
2016-11-14T01:50:50.417Z,48.08
2016-11-14T01:51:50.349Z,49.02
2016-11-14T01:52:50.327Z,48.27
2016-11-14T01:53:50.309Z,48.27
2016-11-14T01:54:50.285Z,47.23
2016-11-14T01:55:50.267Z,47.51
2016-11-14T01:56:50.254Z,48.45
2016-11-14T01:57:50.228Z,48.36
2016-11-14T01:58:50.207Z,48.93
2016-11-14T01:59:50.190Z,49.3
2016-11-14T02:00:50.173Z,49.58
2016-11-14T02:01:50.151Z,50.05
2016-11-14T02:02:50.122Z,50.71
2016-11-14T02:03:50.116Z,50.81
2016-11-14T02:04:50.095Z,51.75
2016-11-14T02:05:50.065Z,51.94
2016-11-14T02:06:50.051Z,50.71
2016-11-14T02:07:50.025Z,48.93
2016-11-14T02:08:50.014Z,48.08
2016-11-14T02:09:49.984Z,48.36
2016-11-14T02:10:49.969Z,48.74
2016-11-14T02:11:49.983Z,49.49
2016-11-14T02:12:49.930Z,47.6
2016-11-14T02:13:49.909Z,48.08
2016-11-14T02:14:49.892Z,48.55
2016-11-14T02:15:49.871Z,48.17
2016-11-14T02:16:49.846Z,48.27
2016-11-14T02:17:49.825Z,48.27
2016-11-14T02:18:49.806Z,49.58
2016-11-14T02:19:49.794Z,51.09
2016-11-14T02:20:49.762Z,51.75
2016-11-14T02:21:49.742Z,52.51
2016-11-14T02:22:49.723Z,52.79
2016-11-14T02:23:49.715Z,51.75
2016-11-14T02:24:49.692Z,50.71
2016-11-14T02:25:49.666Z,50.52
2016-11-14T02:26:49.646Z,50.52
2016-11-14T02:27:49.633Z,50.43
2016-11-14T02:28:49.606Z,50.15
2016-11-14T02:29:49.590Z,50.5
2016-11-14T02:30:49.569Z,50.81
2016-11-14T02:31:49.544Z,51.75
2016-11-14T02:32:49.529Z,51.35
2016-11-14T02:33:49.504Z,50.31
2016-11-14T02:34:49.492Z,49.56
2016-11-14T02:35:49.459Z,49.68
2016-11-14T02:36:49.444Z,47.98
2016-11-14T02:37:49.421Z,47.13
2016-11-14T02:38:49.420Z,46.75
2016-11-14T02:39:49.389Z,46.66
2016-11-14T02:40:49.361Z,46.85
2016-11-14T02:41:49.346Z,47.32
2016-11-14T02:42:49.345Z,48.74
2016-11-14T02:43:49.628Z,49.21
2016-11-14T02:44:49.495Z,48.36
2016-11-14T02:45:49.351Z,48.74
2016-11-14T02:46:49.243Z,49.49
2016-11-14T02:47:49.444Z,48.27
2016-11-14T02:48:49.422Z,46.94
2016-11-14T02:49:49.419Z,45.72
2016-11-14T02:50:49.246Z,45.53
2016-11-14T02:51:49.344Z,45.34
2016-11-14T02:52:49.349Z,45.25
2016-11-14T02:53:49.115Z,43.55
2016-11-14T02:54:49.085Z,43.36
2016-11-14T02:55:49.061Z,43.27
2016-11-14T02:56:49.046Z,43.08
2016-11-14T02:57:49.044Z,42.99
2016-11-14T02:58:49.023Z,42.8
2016-11-14T02:59:49.019Z,42.61
2016-11-14T03:00:48.962Z,43.27
2016-11-14T03:01:48.941Z,44.31
2016-11-14T03:02:48.925Z,44.96
2016-11-14T03:03:48.942Z,45.53
2016-11-14T03:04:48.887Z,47.04
2016-11-14T03:05:48.863Z,47.89
2016-11-14T03:06:49.159Z,48.27
2016-11-14T03:07:48.820Z,48.27
2016-11-14T03:08:48.811Z,48.08
2016-11-14T03:09:48.786Z,47.89
2016-11-14T03:10:48.759Z,46.66
2016-11-14T03:11:48.749Z,45.72
2016-11-14T03:12:48.724Z,46.09
2016-11-14T03:13:48.700Z,46.75
2016-11-14T03:14:48.680Z,47.41
2016-11-14T03:15:48.658Z,47.98
2016-11-14T03:16:48.646Z,48.27
2016-11-14T03:17:48.624Z,48.27
2016-11-14T03:18:48.604Z,49.3
2016-11-14T03:19:48.585Z,48.83
2016-11-14T03:20:48.561Z,49.58
2016-11-14T03:21:48.538Z,49.58
2016-11-14T03:22:48.521Z,49.87
2016-11-14T03:23:48.504Z,49.96
2016-11-14T03:24:48.480Z,49.49
2016-11-14T03:25:48.461Z,48.64
2016-11-14T03:26:48.439Z,49.4
2016-11-14T03:27:48.431Z,49.49
2016-11-14T03:28:48.404Z,50.62
2016-11-14T03:29:48.383Z,50.62
2016-11-14T03:30:48.363Z,49.4
2016-11-14T03:31:48.341Z,48.27
2016-11-14T03:32:48.322Z,48.64
2016-11-14T03:33:48.304Z,49.58
2016-11-14T03:34:48.311Z,49.02
2016-11-14T03:35:48.306Z,48.74
2016-11-14T03:36:48.245Z,47.89
2016-11-14T03:37:48.227Z,48.17
2016-11-14T03:38:48.206Z,48.55
2016-11-14T03:39:48.180Z,48.74
2016-11-14T03:40:48.169Z,48.45
2016-11-14T03:41:48.144Z,48.74
2016-11-14T03:42:48.131Z,49.3
2016-11-14T03:43:48.100Z,49.3
2016-11-14T03:44:48.084Z,48.71
2016-11-14T03:45:48.056Z,49.4
2016-11-14T03:46:48.048Z,49.49
2016-11-14T03:47:48.023Z,48.55
2016-11-14T03:48:48.004Z,47.98
2016-11-14T03:49:47.979Z,47.23
2016-11-14T03:50:47.961Z,47.32
2016-11-14T03:51:47.938Z,46.94
2016-11-14T03:52:47.917Z,46.94
2016-11-14T03:53:47.904Z,47.98
2016-11-14T03:54:47.877Z,48.17
2016-11-14T03:55:47.863Z,48.45
2016-11-14T03:56:47.842Z,48.05
2016-11-14T03:57:47.825Z,46.38
2016-11-14T03:58:47.843Z,47.23
2016-11-14T03:59:47.776Z,47.41
2016-11-14T04:00:47.759Z,47.3
2016-11-14T04:01:47.778Z,48.27
2016-11-14T04:02:47.715Z,48.61
2016-11-14T04:03:47.705Z,48.93
2016-11-14T04:04:47.680Z,48.9
2016-11-14T04:05:47.661Z,48.17
2016-11-14T04:06:47.638Z,48.71
2016-11-14T04:07:47.620Z,49.4
2016-11-14T04:08:47.599Z,48.43
2016-11-14T04:09:47.588Z,47.04
2016-11-14T04:10:47.559Z,47.3
2016-11-14T04:11:47.540Z,48.08
2016-11-14T04:12:47.520Z,47.79
2016-11-14T04:13:47.496Z,48.27
2016-11-14T04:14:47.475Z,49.4
2016-11-14T04:15:47.461Z,49.58
2016-11-14T04:16:47.493Z,50.59
2016-11-14T04:17:47.419Z,51.73
2016-11-14T04:18:47.397Z,52.58
2016-11-14T04:19:47.375Z,53.23
2016-11-14T04:20:47.364Z,52.39
2016-11-14T04:21:47.339Z,50.59
2016-11-14T04:22:47.322Z,50.12
2016-11-14T04:23:47.302Z,50.41
2016-11-14T04:24:47.275Z,51.16
2016-11-14T04:25:47.260Z,51.73
2016-11-14T04:26:47.236Z,51.82
2016-11-14T04:27:47.218Z,50.97
2016-11-14T04:28:47.195Z,51.26
2016-11-14T04:29:47.177Z,51.16
2016-11-14T04:30:47.159Z,50.22
2016-11-14T04:31:47.142Z,48.24
2016-11-14T04:32:47.116Z,45.51
2016-11-14T04:33:47.101Z,45.25
2016-11-14T04:34:47.076Z,45.34
2016-11-14T04:35:47.056Z,44.85
2016-11-14T04:36:47.040Z,45.25
2016-11-14T04:37:47.014Z,45.9
2016-11-14T04:38:46.991Z,46.85
2016-11-14T04:39:46.979Z,46.85
2016-11-14T04:40:46.955Z,47.04
2016-11-14T04:41:46.938Z,46.47
2016-11-14T04:42:46.917Z,45.53
2016-11-14T04:43:46.894Z,45.81
2016-11-14T04:44:46.869Z,46.09
2016-11-14T04:45:46.854Z,45.81
2016-11-14T04:46:46.835Z,45.9
2016-11-14T04:47:46.809Z,48.08
2016-11-14T04:48:46.794Z,48.27
2016-11-14T04:49:46.776Z,48.27
2016-11-14T04:50:46.755Z,48.17
2016-11-14T04:51:46.732Z,46.75
2016-11-14T04:52:46.713Z,45.81
2016-11-14T04:53:46.691Z,45.53
2016-11-14T04:54:46.672Z,46.47
2016-11-14T04:55:46.657Z,47.13
2016-11-14T04:56:46.629Z,46.56
2016-11-14T04:57:46.613Z,46.94
2016-11-14T04:58:46.597Z,46
2016-11-14T04:59:46.574Z,47.04
2016-11-14T05:00:46.549Z,47.79
2016-11-14T05:01:46.528Z,48.27
2016-11-14T05:02:46.510Z,48.36
2016-11-14T05:03:46.494Z,49.3
2016-11-14T05:04:46.483Z,50.78
2016-11-14T05:05:46.457Z,51.63
2016-11-14T05:06:46.432Z,51.16
2016-11-14T05:07:46.410Z,51.26
2016-11-14T05:08:46.397Z,51.82
2016-11-14T05:09:46.370Z,51.54
2016-11-14T05:10:46.344Z,50.59
2016-11-14T05:11:46.328Z,50.22
2016-11-14T05:12:46.313Z,49.37
2016-11-14T05:13:46.293Z,48.61
2016-11-14T05:14:46.270Z,48.52
2016-11-14T05:15:46.257Z,48.24
2016-11-14T05:16:46.546Z,47.11
2016-11-14T05:17:46.211Z,46.92
2016-11-14T05:18:46.189Z,48.24
2016-11-14T05:19:46.176Z,48.61
2016-11-14T05:20:46.150Z,48.8
2016-11-14T05:21:46.125Z,48.61
2016-11-14T05:22:46.111Z,48.05
2016-11-14T05:23:46.086Z,48.24
2016-11-14T05:24:46.067Z,49.18
2016-11-14T05:25:46.050Z,48.61
2016-11-14T05:26:46.031Z,46.83
2016-11-14T05:27:46.028Z,45.04
2016-11-14T05:28:46.039Z,44.87
2016-11-14T05:29:46.043Z,45.34
2016-11-14T05:30:45.999Z,45.06
2016-11-14T05:31:46.047Z,44.87
2016-11-14T05:32:46.014Z,44.59
2016-11-14T05:33:46.013Z,45.81
2016-11-14T05:34:46.015Z,47.13
2016-11-14T05:35:45.924Z,49.02
2016-11-14T05:36:45.935Z,49.96
2016-11-14T05:37:45.936Z,49.49
2016-11-14T05:38:45.942Z,48.93
2016-11-14T05:39:46.276Z,49.46
2016-11-14T05:40:46.006Z,49.96
2016-11-14T05:41:46.213Z,49.93
2016-11-14T05:42:46.015Z,50.41
2016-11-14T05:43:45.902Z,50.59
2016-11-14T05:44:45.927Z,50.41
2016-11-14T05:45:45.924Z,50.12
2016-11-14T05:46:45.792Z,49.65
2016-11-14T05:47:45.761Z,48.99
2016-11-14T05:48:45.966Z,48.14
2016-11-14T05:49:45.966Z,47.02
2016-11-14T05:50:45.707Z,46.83
2016-11-14T05:51:45.736Z,47.49
2016-11-14T05:52:45.715Z,48.24
2016-11-14T05:53:45.692Z,47.86
2016-11-14T05:54:45.552Z,47.3
2016-11-14T05:55:45.559Z,48.24
2016-11-14T05:56:45.532Z,49.37
2016-11-14T05:57:45.404Z,49.46
2016-11-14T05:58:45.380Z,49.65
2016-11-14T05:59:45.360Z,48.8
2016-11-14T06:00:45.341Z,47.96
2016-11-14T06:01:45.325Z,48.05
2016-11-14T06:02:45.301Z,48.8
2016-11-14T06:03:45.279Z,49.37
2016-11-14T06:04:45.262Z,49.46
2016-11-14T06:05:45.248Z,48.8
2016-11-14T06:06:45.227Z,48.61
2016-11-14T06:07:45.201Z,47.96
2016-11-14T06:08:45.185Z,45.98
2016-11-14T06:09:45.157Z,45.51
2016-11-14T06:10:45.140Z,45.7
2016-11-14T06:11:45.118Z,46.07
2016-11-14T06:12:45.099Z,45.51
2016-11-14T06:13:45.079Z,44.66
2016-11-14T06:14:45.061Z,44.75
2016-11-14T06:15:45.038Z,45.98
2016-11-14T06:16:45.022Z,46.73
2016-11-14T06:17:44.999Z,46.73
2016-11-14T06:18:44.972Z,47.49
2016-11-14T06:19:44.954Z,48.24
2016-11-14T06:20:44.931Z,46.55
2016-11-14T06:21:44.920Z,44.09
2016-11-14T06:22:44.894Z,44.66
2016-11-14T06:23:44.884Z,45.98
2016-11-14T06:24:44.854Z,47.11
2016-11-14T06:25:44.834Z,48.05
2016-11-14T06:26:44.813Z,48.24
2016-11-14T06:27:44.795Z,48.24
2016-11-14T06:28:44.788Z,47.49
2016-11-14T06:29:44.756Z,47.11
2016-11-14T06:30:44.733Z,47.2
2016-11-14T06:31:44.714Z,48.14
2016-11-14T06:32:44.694Z,48.43
2016-11-14T06:33:44.673Z,48.24
2016-11-14T06:34:44.653Z,47.39
2016-11-14T06:35:44.633Z,47.11
2016-11-14T06:36:44.616Z,46.92
2016-11-14T06:37:44.594Z,46.17
2016-11-14T06:38:44.574Z,44.94
2016-11-14T06:39:44.560Z,44.56
2016-11-14T06:40:44.534Z,44.38
2016-11-14T06:41:44.514Z,44.47
2016-11-14T06:42:44.497Z,42.61
2016-11-14T06:43:44.467Z,41.19
2016-11-14T06:44:44.445Z,39.59
2016-11-14T06:45:44.441Z,39.87
2016-11-14T06:46:44.413Z,40.72
2016-11-14T06:47:44.386Z,41.95
2016-11-14T06:48:44.370Z,42.99
2016-11-14T06:49:44.351Z,42.99
2016-11-14T06:50:44.331Z,43.17
2016-11-14T06:51:44.308Z,43.36
2016-11-14T06:52:44.285Z,43.74
2016-11-14T06:53:44.270Z,44.49
2016-11-14T06:54:44.245Z,45.43
2016-11-14T06:55:44.234Z,44.59
2016-11-14T06:56:44.244Z,43.93
2016-11-14T06:57:44.187Z,43.74
2016-11-14T06:58:44.169Z,44.31
2016-11-14T06:59:44.161Z,45.25
2016-11-14T07:00:44.127Z,46.47
2016-11-14T07:01:44.113Z,47.6
2016-11-14T07:02:44.084Z,48.74
2016-11-14T07:03:44.065Z,48.08
2016-11-14T07:04:44.051Z,46.94
2016-11-14T07:05:44.024Z,46.66
2016-11-14T07:06:44.008Z,46.85
2016-11-14T07:07:43.983Z,48.08
2016-11-14T07:08:43.969Z,48.64
2016-11-14T07:09:43.950Z,48.08
2016-11-14T07:10:43.925Z,47.13
2016-11-14T07:11:43.911Z,46.38
2016-11-14T07:12:43.889Z,45.72
2016-11-14T07:13:43.868Z,45.62
2016-11-14T07:14:43.850Z,44.02
2016-11-14T07:15:43.834Z,44.02
2016-11-14T07:16:43.810Z,44.02
2016-11-14T07:17:43.789Z,42.8
2016-11-14T07:18:43.773Z,41.19
2016-11-14T07:19:43.782Z,41.76
2016-11-14T07:20:43.769Z,42.04
2016-11-14T07:21:43.767Z,42.99
2016-11-14T07:22:43.776Z,42.7
2016-11-14T07:23:43.725Z,42.7
2016-11-14T07:24:43.739Z,42.23
2016-11-14T07:25:43.683Z,41.95
2016-11-14T07:26:43.748Z,42.04
2016-11-14T07:27:43.750Z,41.57
2016-11-14T07:28:43.661Z,41
2016-11-14T07:29:43.669Z,40.06
2016-11-14T07:30:43.668Z,39.97
2016-11-14T07:31:43.678Z,39.87
2016-11-14T07:32:43.656Z,40.25
2016-11-14T07:33:43.557Z,41
2016-11-14T07:34:43.563Z,41.1
2016-11-14T07:35:43.573Z,41.19
2016-11-14T07:36:43.572Z,41.66
2016-11-14T07:37:43.583Z,41.38
2016-11-14T07:38:43.589Z,42.04
2016-11-14T07:39:43.419Z,43.55
2016-11-14T07:40:43.523Z,43.84
2016-11-14T07:41:43.509Z,43.55
2016-11-14T07:42:43.357Z,43.36
2016-11-14T07:43:43.365Z,42.99
2016-11-14T07:44:43.346Z,42.7
2016-11-14T07:45:43.542Z,41.95
2016-11-14T07:46:43.315Z,40.81
2016-11-14T07:47:43.186Z,40.44
2016-11-14T07:48:43.167Z,39.78
2016-11-14T07:49:43.150Z,39.12
2016-11-14T07:50:43.127Z,38.56
2016-11-14T07:51:43.109Z,38.27
2016-11-14T07:52:43.097Z,38.27
2016-11-14T07:53:43.072Z,38.56
2016-11-14T07:54:43.048Z,38.84
2016-11-14T07:55:43.091Z,39.22
2016-11-14T07:56:43.042Z,39.22
2016-11-14T07:57:42.987Z,39.12
2016-11-14T07:58:42.970Z,39.31
2016-11-14T07:59:42.947Z,39.59
2016-11-14T08:00:42.928Z,39.87
2016-11-14T08:01:42.908Z,39.87
2016-11-14T08:02:42.891Z,39.69
2016-11-14T08:03:42.869Z,40.34
2016-11-14T08:04:42.858Z,40.18
2016-11-14T08:05:42.829Z,39.51
2016-11-14T08:06:42.822Z,39.8
2016-11-14T08:07:42.795Z,40.27
2016-11-14T08:08:42.773Z,40.27
2016-11-14T08:09:42.757Z,40.93
2016-11-14T08:10:42.733Z,41.22
2016-11-14T08:11:42.712Z,40.74
2016-11-14T08:12:42.698Z,41.03
2016-11-14T08:13:42.676Z,41.12
2016-11-14T08:14:42.656Z,41.12
2016-11-14T08:15:42.640Z,40.74
2016-11-14T08:16:42.621Z,41.12
2016-11-14T08:17:42.598Z,42.16
2016-11-14T08:18:42.583Z,42.54
2016-11-14T08:19:42.569Z,42.63
2016-11-14T08:20:42.545Z,43.01
2016-11-14T08:21:42.520Z,43.76
2016-11-14T08:22:42.501Z,44.14
2016-11-14T08:23:42.484Z,43.76
2016-11-14T08:24:42.463Z,43.85
2016-11-14T08:25:42.445Z,44.42
2016-11-14T08:26:42.458Z,44.7
2016-11-14T08:27:42.414Z,44.7
2016-11-14T08:28:42.384Z,45.55
2016-11-14T08:29:42.371Z,46.97
2016-11-14T08:30:42.350Z,48.29
2016-11-14T08:31:42.333Z,48.76
2016-11-14T08:32:42.309Z,49.32
2016-11-14T08:33:42.291Z,49.32
2016-11-14T08:34:42.273Z,50.65
2016-11-14T08:35:42.261Z,50.84
2016-11-14T08:36:42.269Z,51.12
2016-11-14T08:37:42.214Z,50.93
2016-11-14T08:38:42.204Z,51.12
2016-11-14T08:39:42.181Z,49.61
2016-11-14T08:40:42.156Z,48.95
2016-11-14T08:41:42.150Z,48.38
2016-11-14T08:42:42.138Z,48.95
2016-11-14T08:43:42.107Z,47.91
2016-11-14T08:44:42.078Z,48.29
2016-11-14T08:45:42.071Z,47.91
2016-11-14T08:46:42.043Z,47.91
2016-11-14T08:47:42.033Z,48.29
2016-11-14T08:48:42.005Z,48.19
2016-11-14T08:49:41.985Z,48.1
2016-11-14T08:50:41.968Z,48.32
2016-11-14T08:51:41.951Z,48.79
2016-11-14T08:52:41.930Z,48.22
2016-11-14T08:53:41.909Z,46.33
2016-11-14T08:54:42.216Z,46.52
2016-11-14T08:55:41.882Z,46.61
2016-11-14T08:56:42.175Z,47.09
2016-11-14T08:57:41.833Z,47.09
2016-11-14T08:58:41.817Z,48.32
2016-11-14T08:59:41.806Z,49.73
2016-11-14T09:00:41.786Z,49.63
2016-11-14T09:01:41.761Z,51.05
2016-11-14T09:02:41.748Z,52.56
2016-11-14T09:03:41.735Z,52.75
2016-11-14T09:04:41.703Z,52.75
2016-11-14T09:05:41.691Z,52.84
2016-11-14T09:06:41.668Z,53.13
2016-11-14T09:07:41.667Z,53.22
2016-11-14T09:08:41.634Z,53.69
2016-11-14T09:09:41.615Z,55.49
2016-11-14T09:10:41.592Z,55.86
2016-11-14T09:11:41.582Z,54.26
2016-11-14T09:12:41.562Z,58.79
2016-11-14T09:13:41.537Z,61.46
2016-11-14T09:14:41.520Z,63.92
2016-11-14T09:15:41.509Z,64.01
2016-11-14T09:16:41.485Z,66.65
2016-11-14T09:17:41.469Z,69.58
2016-11-14T09:18:41.450Z,69.49
2016-11-14T09:19:41.437Z,69.96
2016-11-14T09:20:41.407Z,71.47
2016-11-14T09:21:41.395Z,72.13
2016-11-14T09:22:41.382Z,74.21
2016-11-14T09:23:41.362Z,78.83
2016-11-14T09:24:41.339Z,92.71
2016-11-14T09:25:41.323Z,91.49
2016-11-14T09:26:41.307Z,90.92
2016-11-14T09:27:41.291Z,90.92
2016-11-14T09:28:41.272Z,93.51
2016-11-14T09:29:41.380Z,92.94
2016-11-14T09:30:41.233Z,95.59
2016-11-14T09:31:41.217Z,97.48
2016-11-14T09:32:41.196Z,98.24
2016-11-14T09:33:41.177Z,99.46
2016-11-14T09:34:41.480Z,98.52
2016-11-14T09:35:41.145Z,99.99
2016-11-14T09:36:41.128Z,99.99
2016-11-14T09:37:41.112Z,99.99
2016-11-14T09:38:41.090Z,99.99
2016-11-14T09:39:41.080Z,99.99
2016-11-14T09:40:41.066Z,99.99
2016-11-14T09:41:41.038Z,99.99
2016-11-14T09:42:41.022Z,99.99
2016-11-14T09:43:41.001Z,99.99
2016-11-14T09:44:40.988Z,99.99
2016-11-14T09:45:40.966Z,99.99
2016-11-14T09:46:40.981Z,99.99
2016-11-14T09:47:40.931Z,99.99
2016-11-14T09:48:40.918Z,99.99
2016-11-14T09:49:40.897Z,99.99
2016-11-14T09:50:40.879Z,99.99
2016-11-14T09:51:40.865Z,99.99
2016-11-14T09:52:40.852Z,99.99
2016-11-14T09:53:40.825Z,99.99
2016-11-14T09:54:40.810Z,99.99
2016-11-14T09:55:40.790Z,99.99
2016-11-14T09:56:40.779Z,99.99
2016-11-14T09:57:40.762Z,99.99
2016-11-14T09:58:40.739Z,99.99
2016-11-14T09:59:40.722Z,99.99
2016-11-14T10:00:40.712Z,99.99
2016-11-14T10:01:40.696Z,99.99
2016-11-14T10:02:40.676Z,99.99
2016-11-14T10:03:40.664Z,99.99
2016-11-14T10:04:40.637Z,99.99
2016-11-14T10:05:40.623Z,99.99
2016-11-14T10:06:40.608Z,99.99
2016-11-14T10:07:40.585Z,99.99
2016-11-14T10:08:40.572Z,99.99
2016-11-14T10:09:40.561Z,99.99
2016-11-14T10:10:40.537Z,99.99
2016-11-14T10:11:40.533Z,99.99
2016-11-14T10:12:40.502Z,99.99
2016-11-14T10:13:40.487Z,99.99
2016-11-14T10:14:40.469Z,99.99
2016-11-14T10:15:40.449Z,99.99
2016-11-14T10:16:40.790Z,99.99
2016-11-14T10:17:40.417Z,99.99
2016-11-14T10:18:40.408Z,99.99
2016-11-14T10:19:40.377Z,99.99
2016-11-14T10:20:40.369Z,99.99
2016-11-14T10:21:40.366Z,99.99
2016-11-14T10:22:40.332Z,99.99
2016-11-14T10:23:40.315Z,99.99
2016-11-14T10:24:40.300Z,99.99
2016-11-14T10:25:40.284Z,99.99
2016-11-14T10:26:40.268Z,99.99
2016-11-14T10:27:40.249Z,99.99
2016-11-14T10:28:40.231Z,99.99
2016-11-14T10:29:40.219Z,99.99
2016-11-14T10:30:40.197Z,99.99
2016-11-14T10:31:40.184Z,99.99
2016-11-14T10:32:40.166Z,99.99
2016-11-14T10:33:40.149Z,99.99
2016-11-14T10:34:40.136Z,99.99
2016-11-14T10:35:40.121Z,99.99
2016-11-14T10:36:40.104Z,99.99
2016-11-14T10:37:40.083Z,99.99
2016-11-14T10:38:40.066Z,99.99
2016-11-14T10:39:40.059Z,99.99
2016-11-14T10:40:40.039Z,99.99
2016-11-14T10:41:40.018Z,99.99
2016-11-14T10:42:39.999Z,99.99
2016-11-14T10:43:39.991Z,99.99
2016-11-14T10:44:39.972Z,99.99
2016-11-14T10:45:39.953Z,99.99
2016-11-14T10:46:39.939Z,99.99
2016-11-14T10:47:39.923Z,99.99
2016-11-14T10:48:39.902Z,99.99
2016-11-14T10:49:39.889Z,99.99
2016-11-14T10:50:39.906Z,99.99
2016-11-14T10:51:39.855Z,99.99
2016-11-14T10:52:39.867Z,99.99
2016-11-14T10:53:39.827Z,99.99
2016-11-14T10:54:39.810Z,99.99
2016-11-14T10:55:39.787Z,99.99
2016-11-14T10:56:39.772Z,99.99
2016-11-14T10:57:39.757Z,99.99
2016-11-14T10:58:39.739Z,99.99
2016-11-14T10:59:39.726Z,99.99
2016-11-14T11:00:39.708Z,99.99
2016-11-14T11:01:39.696Z,99.99
2016-11-14T11:02:39.678Z,99.99
2016-11-14T11:03:39.659Z,99.99
2016-11-14T11:04:39.640Z,99.99
2016-11-14T11:05:39.632Z,99.99
2016-11-14T11:06:39.610Z,99.99
2016-11-14T11:07:39.592Z,99.99
2016-11-14T11:08:39.579Z,99.99
2016-11-14T11:09:39.561Z,99.99
2016-11-14T11:10:39.544Z,99.99
2016-11-14T11:11:39.536Z,99.99
2016-11-14T11:12:39.512Z,99.99
2016-11-14T11:13:39.597Z,99.99
2016-11-14T11:14:39.484Z,99.99
2016-11-14T11:15:39.469Z,99.99
2016-11-14T11:16:39.449Z,99.99
2016-11-14T11:17:39.434Z,99.99
2016-11-14T11:18:39.420Z,99.99
2016-11-14T11:19:39.401Z,99.99
2016-11-14T11:20:39.391Z,99.99
2016-11-14T11:21:39.814Z,99.99
2016-11-14T11:22:39.352Z,99.99
2016-11-14T11:23:39.338Z,99.99
2016-11-14T11:24:39.324Z,99.99
2016-11-14T11:25:39.309Z,99.99
2016-11-14T11:26:39.294Z,99.99
2016-11-14T11:27:39.275Z,99.99
2016-11-14T11:28:39.258Z,99.99
2016-11-14T11:29:39.245Z,99.99
2016-11-14T11:30:39.232Z,99.99
2016-11-14T11:31:39.213Z,99.99
2016-11-14T11:32:39.196Z,99.99
2016-11-14T11:33:39.183Z,99.99
2016-11-14T11:34:39.163Z,99.99
2016-11-14T11:35:39.410Z,99.99
2016-11-14T11:36:39.140Z,99.99
2016-11-14T11:37:39.120Z,99.99
2016-11-14T11:38:39.101Z,99.99
2016-11-14T11:39:39.091Z,99.99
2016-11-14T11:40:39.070Z,99.99
2016-11-14T11:41:39.059Z,99.99
2016-11-14T11:42:39.040Z,99.99
2016-11-14T11:43:39.020Z,99.99
2016-11-14T11:44:39.014Z,99.99
2016-11-14T11:45:38.993Z,99.99
2016-11-14T11:46:38.979Z,99.99
2016-11-14T11:47:38.970Z,99.99
2016-11-14T11:48:38.950Z,99.99
2016-11-14T11:49:38.931Z,99.99
2016-11-14T11:50:38.916Z,99.99
2016-11-14T11:51:38.899Z,99.99
2016-11-14T11:52:38.882Z,99.99
2016-11-14T11:53:38.868Z,99.99
2016-11-14T11:54:38.895Z,99.99
2016-11-14T11:55:38.833Z,99.99
2016-11-14T11:56:38.831Z,99.99
2016-11-14T11:57:38.815Z,99.99
2016-11-14T11:58:38.787Z,99.99
2016-11-14T11:59:38.780Z,99.99
2016-11-14T12:00:38.759Z,99.99
2016-11-14T12:01:38.748Z,99.99
2016-11-14T12:02:38.728Z,99.99
2016-11-14T12:03:38.717Z,99.99
2016-11-14T12:04:38.699Z,99.99
2016-11-14T12:05:38.684Z,99.99
2016-11-14T12:06:38.698Z,99.99
2016-11-14T12:07:38.652Z,99.99
2016-11-14T12:08:38.633Z,99.99
2016-11-14T12:09:38.623Z,99.99
2016-11-14T12:10:38.605Z,99.99
2016-11-14T12:11:38.589Z,99.99
2016-11-14T12:12:38.579Z,99.99
2016-11-14T12:13:38.561Z,99.99
2016-11-14T12:14:38.541Z,99.99
2016-11-14T12:15:38.529Z,99.99
2016-11-14T12:16:38.514Z,99.99
2016-11-14T12:17:38.501Z,99.99
2016-11-14T12:18:38.478Z,99.99
2016-11-14T12:19:38.471Z,99.99
2016-11-14T12:20:38.446Z,99.99
2016-11-14T12:21:38.459Z,99.99
2016-11-14T12:22:38.422Z,99.99
2016-11-14T12:23:38.401Z,99.99
2016-11-14T12:24:38.390Z,99.99
2016-11-14T12:25:38.371Z,99.99
2016-11-14T12:26:38.359Z,99.99
2016-11-14T12:27:38.340Z,99.99
2016-11-14T12:28:38.335Z,99.99
2016-11-14T12:29:38.314Z,99.99
2016-11-14T12:30:38.301Z,99.99
2016-11-14T12:31:38.281Z,99.99
2016-11-14T12:32:38.263Z,99.99
2016-11-14T12:33:38.249Z,99.99
2016-11-14T12:34:38.244Z,99.99
2016-11-14T12:35:38.212Z,99.99
2016-11-14T12:36:38.205Z,99.99
2016-11-14T12:37:38.190Z,99.99
2016-11-14T12:38:38.168Z,99.99
2016-11-14T12:39:38.157Z,99.99
2016-11-14T12:40:38.135Z,99.99
2016-11-14T12:41:38.119Z,99.99
2016-11-14T12:42:38.117Z,99.99
2016-11-14T12:43:38.091Z,99.99
2016-11-14T12:44:38.080Z,99.99
2016-11-14T12:45:38.069Z,99.99
2016-11-14T12:46:38.047Z,99.99
2016-11-14T12:47:38.035Z,99.99
2016-11-14T12:48:38.018Z,99.99
2016-11-14T12:49:37.994Z,99.99
2016-11-14T12:50:37.979Z,99.99
2016-11-14T12:51:37.986Z,99.99
2016-11-14T12:52:37.954Z,99.99
2016-11-14T12:53:37.933Z,99.99
2016-11-14T12:54:37.924Z,99.99